Time;durP1;ratioP1;P1;durP2;ratioP2;P2;SDS_P1;SDS_P2;PMS_P1;PMS_P2;Temp;Humidity;BMP_temperature;BMP_pressure;BME280_temperature;BME280_humidity;BME280_pressure;Samples;Min_cycle;Max_cycle;Signal;HPM_P1;HPM_P2
2022/03/16 00:00:19;;;;;;;49.53;31.17;;;6.70;99.90;;;;;;5049067;28;20049;-67
2022/03/16 00:02:48;;;;;;;52.08;30.77;;;6.70;99.90;;;;;;5051493;28;20067;-66
2022/03/16 00:05:15;;;;;;;43.63;30.73;;;6.70;99.90;;;;;;5051485;28;20612;-66
2022/03/16 00:07:43;;;;;;;49.55;31.05;;;6.70;99.90;;;;;;5050285;28;20037;-66
2022/03/16 00:10:12;;;;;;;42.65;29.02;;;6.60;99.90;;;;;;5051564;28;20056;-67
2022/03/16 00:12:41;;;;;;;44.55;29.70;;;6.70;99.90;;;;;;5052561;28;20504;-66
2022/03/16 00:15:09;;;;;;;43.70;30.23;;;6.70;99.90;;;;;;5049857;28;20041;-66
2022/03/16 00:17:37;;;;;;;44.13;29.85;;;6.80;99.90;;;;;;5051711;28;20385;-66
2022/03/16 00:20:07;;;;;;;47.13;30.13;;;6.70;99.90;;;;;;5051782;28;20049;-66
2022/03/16 00:22:34;;;;;;;38.90;27.08;;;6.70;99.90;;;;;;5051426;28;20048;-66
2022/03/16 00:25:02;;;;;;;45.55;28.45;;;6.70;99.90;;;;;;5050994;28;20194;-66
2022/03/16 00:27:29;;;;;;;47.38;29.88;;;6.60;99.90;;;;;;5051323;28;20415;-67
2022/03/16 00:29:57;;;;;;;45.45;30.10;;;6.60;99.90;;;;;;5051072;28;20136;-67
2022/03/16 00:32:24;;;;;;;40.67;27.50;;;6.70;99.90;;;;;;5049273;28;20506;-66
2022/03/16 00:34:51;;;;;;;45.72;29.25;;;6.60;99.90;;;;;;5033238;28;20045;-67
2022/03/16 00:37:20;;;;;;;41.55;28.33;;;6.60;99.90;;;;;;5049115;28;20393;-67
2022/03/16 00:39:48;;;;;;;45.20;28.85;;;6.70;99.90;;;;;;5020356;28;20063;-66
2022/03/16 00:42:15;;;;;;;44.10;29.58;;;6.70;99.90;;;;;;5050700;28;20503;-66
2022/03/16 00:44:43;;;;;;;42.50;28.88;;;6.60;99.90;;;;;;5050021;28;20041;-66
2022/03/16 00:47:10;;;;;;;44.33;29.38;;;6.70;99.90;;;;;;5049041;28;20056;-66
2022/03/16 00:49:38;;;;;;;43.38;29.48;;;6.70;99.90;;;;;;5050355;28;20044;-66
2022/03/16 00:52:06;;;;;;;43.00;29.15;;;6.70;99.90;;;;;;5042248;28;20045;-66
2022/03/16 00:54:35;;;;;;;43.47;29.33;;;6.70;99.90;;;;;;5055436;28;20528;-66
2022/03/16 00:57:02;;;;;;;43.33;29.52;;;6.70;99.90;;;;;;5062174;28;20514;-66
2022/03/16 00:59:30;;;;;;;44.22;28.92;;;6.70;99.90;;;;;;5049380;28;20048;-66
2022/03/16 01:01:58;;;;;;;43.95;29.15;;;6.70;99.90;;;;;;5049486;28;20041;-65
2022/03/16 01:04:25;;;;;;;41.78;27.77;;;6.70;99.90;;;;;;5049109;28;20143;-66
2022/03/16 01:06:54;;;;;;;41.63;29.17;;;6.70;99.90;;;;;;5050780;28;20124;-66
2022/03/16 01:09:21;;;;;;;42.35;28.90;;;6.70;99.90;;;;;;5050508;28;20058;-66
2022/03/16 01:11:49;;;;;;;43.17;28.25;;;6.70;99.90;;;;;;5048097;28;20142;-66
2022/03/16 01:14:17;;;;;;;40.45;28.27;;;6.60;99.90;;;;;;5048945;28;20534;-66
2022/03/16 01:16:45;;;;;;;44.00;28.88;;;6.70;99.90;;;;;;5054692;28;20080;-66
2022/03/16 01:19:14;;;;;;;39.63;26.88;;;6.70;99.90;;;;;;5053748;28;20033;-66
2022/03/16 01:21:42;;;;;;;42.78;27.48;;;6.70;99.90;;;;;;5054679;28;20049;-66
2022/03/16 01:24:10;;;;;;;41.60;27.98;;;6.70;99.90;;;;;;5048450;28;20048;-66
2022/03/16 01:26:37;;;;;;;39.45;25.85;;;6.70;99.90;;;;;;5036689;28;20404;-66
2022/03/16 01:29:05;;;;;;;41.33;27.15;;;6.70;99.90;;;;;;5046771;28;20585;-66
2022/03/16 01:31:33;;;;;;;37.55;25.90;;;6.70;99.90;;;;;;5065117;28;20094;-66
2022/03/16 01:34:01;;;;;;;36.35;25.80;;;6.70;99.90;;;;;;5056861;28;20067;-67
2022/03/16 01:36:28;;;;;;;41.88;27.95;;;6.80;99.90;;;;;;5048471;28;20037;-67
2022/03/16 01:38:55;;;;;;;35.05;24.92;;;6.80;99.90;;;;;;5060451;28;20041;-67
2022/03/16 01:41:23;;;;;;;39.50;26.25;;;6.80;99.90;;;;;;5018650;28;20060;-66
2022/03/16 01:43:54;;;;;;;41.03;26.10;;;6.80;99.90;;;;;;5046418;28;20055;-66
2022/03/16 01:46:22;;;;;;;39.65;25.77;;;6.70;99.90;;;;;;5054228;28;20361;-67
2022/03/16 01:48:53;;;;;;;41.00;26.80;;;6.70;99.90;;;;;;5055916;28;20045;-66
2022/03/16 01:51:21;;;;;;;39.00;25.85;;;6.70;99.90;;;;;;5053367;28;20120;-66
2022/03/16 01:53:49;;;;;;;42.60;29.20;;;6.70;99.90;;;;;;5057050;28;20127;-67
2022/03/16 01:56:17;;;;;;;37.47;26.20;;;6.80;99.90;;;;;;5056997;28;20037;-67
2022/03/16 01:58:45;;;;;;;43.72;28.05;;;6.80;99.90;;;;;;5045887;28;20041;-67
2022/03/16 02:01:14;;;;;;;41.60;29.65;;;6.70;99.90;;;;;;5038438;28;20120;-67
2022/03/16 02:03:42;;;;;;;40.10;27.52;;;6.70;99.90;;;;;;5040683;28;20099;-67
2022/03/16 02:06:10;;;;;;;40.05;28.10;;;6.80;99.90;;;;;;5048978;28;20033;-67
2022/03/16 02:08:37;;;;;;;41.17;27.55;;;6.80;99.90;;;;;;5056924;28;20053;-67
2022/03/16 02:11:04;;;;;;;45.47;30.08;;;6.80;99.90;;;;;;5060148;28;20116;-67
2022/03/16 02:13:34;;;;;;;41.20;28.15;;;6.70;99.90;;;;;;5062835;28;20106;-67
2022/03/16 02:16:03;;;;;;;39.90;27.02;;;6.80;99.90;;;;;;5058780;28;20044;-67
2022/03/16 02:18:30;;;;;;;50.63;31.83;;;6.80;99.90;;;;;;5055068;28;20044;-67
2022/03/16 02:21:00;;;;;;;48.92;30.20;;;6.80;99.90;;;;;;5056337;28;20048;-66
2022/03/16 02:23:27;;;;;;;44.22;28.83;;;6.80;99.90;;;;;;5043034;28;20076;-66
2022/03/16 02:25:55;;;;;;;42.25;29.58;;;6.80;99.90;;;;;;5044365;28;20053;-66
2022/03/16 02:28:24;;;;;;;39.72;27.38;;;6.80;99.90;;;;;;5048371;28;20131;-67
2022/03/16 02:30:52;;;;;;;41.08;27.38;;;6.80;99.90;;;;;;5050207;28;20044;-67
2022/03/16 02:33:19;;;;;;;43.95;28.40;;;6.80;99.90;;;;;;5047171;28;20057;-68
2022/03/16 02:35:47;;;;;;;40.05;27.55;;;6.80;99.90;;;;;;5032469;28;20499;-67
2022/03/16 02:38:14;;;;;;;41.50;28.83;;;6.80;99.90;;;;;;5054109;28;20492;-67
2022/03/16 02:40:41;;;;;;;41.45;28.13;;;6.80;99.90;;;;;;5051238;28;20135;-67
2022/03/16 02:43:09;;;;;;;40.55;27.25;;;6.70;99.90;;;;;;5051150;28;20530;-67
2022/03/16 02:45:36;;;;;;;42.42;28.75;;;6.70;99.90;;;;;;5057539;28;20446;-67
2022/03/16 02:48:05;;;;;;;39.15;27.02;;;6.70;99.90;;;;;;5054637;28;20037;-67
2022/03/16 02:50:32;;;;;;;41.55;28.75;;;6.60;99.90;;;;;;5061534;28;20047;-67
2022/03/16 02:52:59;;;;;;;41.08;26.92;;;6.60;99.90;;;;;;5057220;28;20154;-67
2022/03/16 02:55:47;;;;;;;40.13;27.45;;;6.60;99.90;;;;;;5061923;28;20460;-67
2022/03/16 02:58:15;;;;;;;44.20;28.23;;;6.60;99.90;;;;;;5052993;28;20149;-67
2022/03/16 03:00:44;;;;;;;41.30;27.35;;;6.60;99.90;;;;;;5042706;28;20045;-67
2022/03/16 03:03:11;;;;;;;40.58;27.58;;;6.60;99.90;;;;;;5045222;28;20080;-67
2022/03/16 03:05:39;;;;;;;41.47;27.55;;;6.60;99.90;;;;;;5056472;28;20044;-67
2022/03/16 03:08:06;;;;;;;44.10;28.70;;;6.50;99.90;;;;;;5059341;28;20060;-67
2022/03/16 03:10:34;;;;;;;37.83;27.23;;;6.50;99.90;;;;;;5066351;28;20043;-67
2022/03/16 03:13:01;;;;;;;43.70;29.33;;;6.50;99.90;;;;;;5052014;28;20049;-68
2022/03/16 03:15:28;;;;;;;38.60;26.83;;;6.50;99.90;;;;;;5051881;28;20102;-67
2022/03/16 03:17:55;;;;;;;44.10;28.65;;;6.50;99.90;;;;;;5051801;28;20053;-67
2022/03/16 03:20:23;;;;;;;45.22;28.50;;;6.50;99.90;;;;;;5050837;28;20055;-67
2022/03/16 03:22:50;;;;;;;43.63;27.98;;;6.40;99.90;;;;;;5058812;28;20502;-67
2022/03/16 03:25:18;;;;;;;42.42;28.60;;;6.40;99.90;;;;;;5057646;28;20372;-67
2022/03/16 03:27:46;;;;;;;41.75;27.90;;;6.40;99.90;;;;;;5052770;28;20049;-67
2022/03/16 03:30:14;;;;;;;44.42;28.70;;;6.40;99.90;;;;;;5045757;28;20045;-66
2022/03/16 03:32:41;;;;;;;45.38;29.08;;;6.40;99.90;;;;;;5035368;28;20036;-67
2022/03/16 03:35:09;;;;;;;41.72;28.98;;;6.30;99.90;;;;;;5061303;28;20060;-67
2022/03/16 03:37:36;;;;;;;43.45;29.02;;;6.20;99.90;;;;;;5052747;28;20450;-67
2022/03/16 03:40:06;;;;;;;42.80;29.75;;;6.20;99.90;;;;;;5053912;28;20040;-67
2022/03/16 03:42:33;;;;;;;41.17;28.83;;;6.10;99.90;;;;;;5061982;28;20086;-67
2022/03/16 03:45:01;;;;;;;44.72;29.25;;;6.10;99.90;;;;;;5060418;28;20045;-67
2022/03/16 03:47:29;;;;;;;44.20;28.38;;;6.10;99.90;;;;;;5057576;28;20074;-67
2022/03/16 03:49:56;;;;;;;48.38;30.83;;;6.00;99.90;;;;;;5059988;28;20490;-68
2022/03/16 03:52:23;;;;;;;48.35;32.55;;;5.80;99.90;;;;;;5059367;28;20041;-67
2022/03/16 03:54:51;;;;;;;46.67;31.10;;;5.70;99.90;;;;;;5058946;28;20625;-66
2022/03/16 03:57:18;;;;;;;46.55;30.52;;;5.60;99.90;;;;;;5065965;28;20135;-66
2022/03/16 03:59:45;;;;;;;50.65;31.23;;;5.50;99.90;;;;;;5043006;28;20376;-66
2022/03/16 04:02:12;;;;;;;47.92;30.58;;;5.30;99.90;;;;;;5037362;28;20099;-66
2022/03/16 04:04:41;;;;;;;49.28;30.90;;;5.30;99.90;;;;;;5053986;28;20636;-67
2022/03/16 04:07:08;;;;;;;51.95;32.45;;;5.20;99.90;;;;;;5053972;28;20047;-66
2022/03/16 04:09:35;;;;;;;48.80;31.23;;;5.20;99.90;;;;;;5067204;28;20503;-66
2022/03/16 04:12:03;;;;;;;52.28;33.53;;;5.30;99.90;;;;;;5065787;28;20044;-66
2022/03/16 04:14:30;;;;;;;51.45;32.50;;;5.40;99.90;;;;;;5057717;28;20040;-67
2022/03/16 04:16:58;;;;;;;46.70;31.00;;;5.40;99.90;;;;;;5066886;28;20051;-66
2022/03/16 04:19:26;;;;;;;49.75;32.03;;;5.50;99.90;;;;;;5066641;28;20036;-67
2022/03/16 04:21:53;;;;;;;50.95;33.08;;;5.60;99.90;;;;;;5066438;28;20048;-67
2022/03/16 04:24:20;;;;;;;53.08;32.42;;;5.70;99.90;;;;;;5060365;28;20044;-67
2022/03/16 04:26:47;;;;;;;46.15;30.42;;;5.70;99.90;;;;;;5067019;28;20045;-67
2022/03/16 04:29:15;;;;;;;47.10;29.98;;;5.80;99.90;;;;;;5066158;28;20500;-67
2022/03/16 04:31:42;;;;;;;50.33;31.80;;;5.80;99.90;;;;;;5056791;28;20049;-67
2022/03/16 04:34:09;;;;;;;43.05;29.33;;;5.80;99.90;;;;;;5059998;28;20044;-67
2022/03/16 04:36:36;;;;;;;46.60;31.15;;;5.90;99.90;;;;;;5068325;28;20063;-67
2022/03/16 04:39:04;;;;;;;47.20;31.60;;;5.90;99.90;;;;;;5066977;28;20613;-67
2022/03/16 04:41:31;;;;;;;44.67;28.38;;;5.90;99.90;;;;;;5049554;28;20052;-67
2022/03/16 04:43:58;;;;;;;47.83;29.33;;;5.90;99.90;;;;;;5056829;28;20082;-66
2022/03/16 04:46:25;;;;;;;43.50;30.15;;;6.00;99.90;;;;;;5065787;28;20461;-67
2022/03/16 04:48:53;;;;;;;41.30;27.60;;;6.00;99.90;;;;;;5062619;28;20048;-68
2022/03/16 04:51:20;;;;;;;44.80;29.38;;;5.90;99.90;;;;;;5066409;28;20067;-68
2022/03/16 04:53:47;;;;;;;46.72;30.60;;;5.90;99.90;;;;;;5059401;28;20059;-66
2022/03/16 04:56:14;;;;;;;42.63;28.48;;;5.80;99.90;;;;;;5051851;28;20497;-68
2022/03/16 04:58:42;;;;;;;45.63;29.65;;;5.70;99.90;;;;;;5046926;28;20033;-67
2022/03/16 05:01:09;;;;;;;42.17;28.27;;;5.60;99.90;;;;;;5050475;28;20063;-67
2022/03/16 05:03:36;;;;;;;45.70;29.35;;;5.50;99.90;;;;;;5050019;28;20118;-67
2022/03/16 05:06:04;;;;;;;44.35;28.80;;;5.50;99.90;;;;;;5042996;28;20057;-67
2022/03/16 05:08:35;;;;;;;45.92;30.52;;;5.30;99.90;;;;;;5044942;28;20045;-67
2022/03/16 05:11:02;;;;;;;46.00;30.42;;;5.30;99.90;;;;;;5060333;28;20064;-67
2022/03/16 05:13:30;;;;;;;44.88;29.20;;;5.20;99.90;;;;;;5062832;28;20044;-67
2022/03/16 05:15:57;;;;;;;47.50;30.08;;;5.10;99.90;;;;;;5062501;28;20041;-68
2022/03/16 05:18:26;;;;;;;50.70;31.52;;;5.10;99.90;;;;;;5065146;28;20475;-67
2022/03/16 05:20:53;;;;;;;50.33;32.05;;;5.00;99.90;;;;;;5060129;28;20044;-66
2022/03/16 05:23:21;;;;;;;47.38;32.45;;;5.00;99.90;;;;;;5051870;28;20163;-67
2022/03/16 05:25:49;;;;;;;50.60;31.90;;;4.90;99.90;;;;;;5042058;28;20069;-68
2022/03/16 05:28:17;;;;;;;48.13;32.30;;;4.90;99.90;;;;;;5052832;28;20059;-67
2022/03/16 05:30:44;;;;;;;52.47;32.92;;;4.80;99.90;;;;;;5060975;28;20063;-67
2022/03/16 05:33:12;;;;;;;55.30;34.63;;;4.80;99.90;;;;;;5046228;28;20045;-66
2022/03/16 05:35:41;;;;;;;57.03;35.03;;;4.80;99.90;;;;;;5060719;28;20060;-67
2022/03/16 05:38:12;;;;;;;57.13;34.95;;;4.80;99.90;;;;;;5066261;28;20060;-66
2022/03/16 05:40:40;;;;;;;56.65;33.67;;;4.80;99.90;;;;;;5056593;28;20087;-67
2022/03/16 05:43:09;;;;;;;55.35;34.65;;;4.80;99.90;;;;;;5042939;28;20163;-68
2022/03/16 05:45:37;;;;;;;55.45;34.75;;;4.80;99.90;;;;;;5062018;28;20045;-68
2022/03/16 05:48:05;;;;;;;59.85;35.08;;;4.80;99.90;;;;;;5062145;28;20110;-68
2022/03/16 05:50:32;;;;;;;54.47;33.70;;;4.80;99.90;;;;;;5060365;28;20471;-68
2022/03/16 05:53:01;;;;;;;56.70;34.67;;;4.80;99.90;;;;;;5047872;28;20082;-67
2022/03/16 05:55:29;;;;;;;56.22;33.63;;;4.80;99.90;;;;;;5058896;28;20455;-68
2022/03/16 05:57:56;;;;;;;54.03;33.92;;;4.90;99.90;;;;;;5059534;28;20071;-68
2022/03/16 06:00:23;;;;;;;49.08;32.53;;;4.90;99.90;;;;;;5052243;28;20353;-69
2022/03/16 06:02:51;;;;;;;57.65;35.25;;;5.00;99.90;;;;;;5051018;28;20053;-68
2022/03/16 06:05:24;;;;;;;61.42;36.22;;;5.00;99.90;;;;;;5053753;28;20500;-69
2022/03/16 06:07:51;;;;;;;62.72;37.42;;;5.10;99.90;;;;;;5051096;28;20045;-67
2022/03/16 06:10:19;;;;;;;58.80;36.03;;;5.10;99.90;;;;;;5050072;28;20044;-69
2022/03/16 06:13:00;;;;;;;56.72;34.17;;;5.20;99.90;;;;;;5032824;28;20079;-68
2022/03/16 06:15:30;;;;;;;63.92;38.92;;;5.20;99.90;;;;;;5019815;28;20053;-68
2022/03/16 06:18:00;;;;;;;65.95;41.72;;;5.30;99.90;;;;;;5048070;28;20591;-67
2022/03/16 06:20:28;;;;;;;74.32;42.03;;;5.40;99.90;;;;;;5050399;28;20114;-68
2022/03/16 06:22:56;;;;;;;70.55;42.90;;;5.50;99.90;;;;;;5049297;28;20044;-69
2022/03/16 06:25:24;;;;;;;61.65;37.58;;;5.50;99.90;;;;;;5048865;28;20127;-68
2022/03/16 06:27:52;;;;;;;58.28;34.70;;;5.60;99.90;;;;;;5049773;28;20071;-68
2022/03/16 06:30:20;;;;;;;59.67;34.28;;;5.70;99.90;;;;;;5048438;28;20043;-68
2022/03/16 06:32:48;;;;;;;51.28;31.77;;;5.90;99.90;;;;;;5050189;28;20045;-68
2022/03/16 06:35:16;;;;;;;48.78;30.52;;;6.00;99.90;;;;;;5044777;28;20045;-68
2022/03/16 06:37:44;;;;;;;50.50;30.92;;;6.00;99.90;;;;;;5032686;28;20097;-68
2022/03/16 06:40:13;;;;;;;48.05;29.75;;;6.10;99.90;;;;;;5058192;28;20108;-68
2022/03/16 06:42:53;;;;;;;42.40;28.17;;;6.20;99.90;;;;;;5054233;28;20049;-68
2022/03/16 06:45:22;;;;;;;42.38;27.48;;;6.20;99.90;;;;;;5054753;28;20059;-67
2022/03/16 06:47:50;;;;;;;41.65;28.08;;;6.30;99.90;;;;;;5055769;28;20049;-67
2022/03/16 06:50:18;;;;;;;39.53;25.98;;;6.30;99.90;;;;;;5055225;28;20041;-67
2022/03/16 06:52:46;;;;;;;39.17;25.67;;;6.40;99.90;;;;;;5049974;28;20052;-68
2022/03/16 06:55:14;;;;;;;40.58;25.98;;;6.50;99.90;;;;;;5052851;28;20048;-68
2022/03/16 06:57:41;;;;;;;39.20;26.27;;;6.60;99.90;;;;;;5031347;28;20049;-68
2022/03/16 07:00:09;;;;;;;40.55;26.65;;;6.60;99.90;;;;;;5050515;28;20132;-68
2022/03/16 07:02:51;;;;;;;39.35;26.45;;;6.70;99.90;;;;;;5045526;28;20416;-68
2022/03/16 07:05:18;;;;;;;43.63;29.57;;;6.90;99.90;;;;;;5051180;28;20041;-68
2022/03/16 07:07:49;;;;;;;45.42;30.00;;;7.00;99.90;;;;;;5049577;28;20299;-68
2022/03/16 07:10:16;;;;;;;41.70;27.65;;;7.10;99.90;;;;;;5012083;28;20045;-68
2022/03/16 07:12:44;;;;;;;40.40;25.88;;;7.30;99.90;;;;;;5045476;28;20087;-68
2022/03/16 07:15:11;;;;;;;42.20;26.77;;;7.40;99.90;;;;;;5062587;28;20429;-68
2022/03/16 07:17:39;;;;;;;41.75;28.00;;;7.50;99.90;;;;;;5051617;28;20575;-67
2022/03/16 07:20:07;;;;;;;38.80;27.13;;;7.70;99.90;;;;;;5057978;28;20072;-67
2022/03/16 07:22:35;;;;;;;44.42;28.40;;;7.90;99.90;;;;;;5055526;28;20053;-66
2022/03/16 07:25:21;;;;;;;42.60;27.48;;;8.00;99.90;;;;;;5051741;28;20630;-68
2022/03/16 07:27:49;;;;;;;41.03;28.60;;;8.20;99.90;;;;;;5036942;28;20476;-68
2022/03/16 07:30:17;;;;;;;42.67;27.88;;;8.50;99.90;;;;;;5046945;28;20508;-68
2022/03/16 07:32:46;;;;;;;44.45;29.48;;;8.60;99.90;;;;;;5054138;28;20086;-68
2022/03/16 07:35:14;;;;;;;38.55;25.95;;;8.80;99.90;;;;;;5052435;28;20829;-68
2022/03/16 07:37:42;;;;;;;37.60;24.95;;;8.90;99.90;;;;;;5051795;28;20195;-67
2022/03/16 07:40:10;;;;;;;34.15;23.17;;;8.90;99.90;;;;;;5052489;28;20072;-67
2022/03/16 07:42:38;;;;;;;29.17;20.77;;;9.00;99.90;;;;;;5062735;28;20049;-68
2022/03/16 07:45:06;;;;;;;33.38;22.95;;;9.10;99.90;;;;;;5048064;28;20531;-67
2022/03/16 07:47:33;;;;;;;30.85;20.33;;;9.10;99.90;;;;;;5045436;28;20040;-67
2022/03/16 07:50:07;;;;;;;31.35;19.50;;;9.30;99.90;;;;;;5048459;28;20055;-68
2022/03/16 07:52:34;;;;;;;30.20;21.20;;;9.40;99.90;;;;;;5053390;28;20056;-68
2022/03/16 07:55:02;;;;;;;32.25;22.83;;;9.50;99.90;;;;;;5063415;28;20033;-68
2022/03/16 07:57:29;;;;;;;30.60;21.48;;;9.60;99.90;;;;;;5061161;28;20419;-68
2022/03/16 07:59:56;;;;;;;27.33;20.15;;;9.70;99.90;;;;;;5055461;28;20072;-68
2022/03/16 08:02:26;;;;;;;24.00;16.73;;;9.90;99.90;;;;;;5075509;28;20538;-68
2022/03/16 08:04:57;;;;;;;24.95;16.27;;;9.90;99.90;;;;;;5058141;28;20041;-68
2022/03/16 08:07:29;;;;;;;24.77;17.30;;;10.10;99.90;;;;;;5056580;28;20040;-68
2022/03/16 08:09:58;;;;;;;22.95;16.00;;;10.30;99.90;;;;;;5056892;28;20559;-68
2022/03/16 08:12:26;;;;;;;21.65;15.52;;;10.20;99.90;;;;;;5054448;28;20040;-68
2022/03/16 08:14:54;;;;;;;25.15;17.75;;;10.20;99.90;;;;;;5034840;28;20420;-68
2022/03/16 08:17:22;;;;;;;22.90;16.23;;;10.40;99.90;;;;;;5055169;28;20583;-68
2022/03/16 08:19:50;;;;;;;21.98;15.93;;;10.40;99.90;;;;;;5055147;28;20527;-67
2022/03/16 08:22:32;;;;;;;22.83;15.32;;;10.50;99.90;;;;;;5053633;28;20056;-67
2022/03/16 08:25:02;;;;;;;21.75;15.45;;;10.60;99.90;;;;;;5052988;28;20413;-68
2022/03/16 08:27:31;;;;;;;21.92;15.20;;;10.70;99.90;;;;;;5055432;28;20037;-68
2022/03/16 08:29:58;;;;;;;23.30;15.63;;;10.70;99.90;;;;;;5054533;28;20481;-67
2022/03/16 08:32:26;;;;;;;24.10;15.45;;;10.80;99.90;;;;;;5052434;28;20041;-68
2022/03/16 08:34:53;;;;;;;24.70;16.38;;;10.80;99.90;;;;;;5055326;28;20500;-67
2022/03/16 08:37:21;;;;;;;21.83;16.30;;;10.80;99.90;;;;;;5052549;28;20044;-68
2022/03/16 08:39:49;;;;;;;24.17;16.33;;;10.80;99.90;;;;;;5053740;28;20416;-67
2022/03/16 08:42:17;;;;;;;22.88;15.63;;;10.90;99.90;;;;;;5057116;28;20053;-67
2022/03/16 08:44:45;;;;;;;18.50;14.20;;;10.90;99.90;;;;;;5053537;28;20155;-67
2022/03/16 08:47:16;;;;;;;19.83;14.45;;;11.00;99.90;;;;;;5054230;28;20500;-67
2022/03/16 08:49:53;;;;;;;22.30;16.17;;;11.10;99.90;;;;;;5053505;28;20040;-67
2022/03/16 08:52:20;;;;;;;20.70;15.52;;;11.10;99.90;;;;;;5055961;28;20403;-68
2022/03/16 08:54:50;;;;;;;25.35;15.52;;;11.10;99.90;;;;;;5045941;28;20051;-68
2022/03/16 08:57:18;;;;;;;21.60;14.98;;;11.10;99.90;;;;;;5061713;28;20036;-66
2022/03/16 08:59:45;;;;;;;25.33;15.60;;;11.20;99.90;;;;;;5056143;28;20060;-68
2022/03/16 09:02:12;;;;;;;21.73;15.05;;;11.30;99.90;;;;;;5046752;28;20397;-67
2022/03/16 09:04:40;;;;;;;22.08;15.48;;;11.40;99.90;;;;;;5050164;28;20372;-67
2022/03/16 09:07:07;;;;;;;18.67;13.70;;;11.20;99.90;;;;;;5051256;28;20484;-69
2022/03/16 09:09:39;;;;;;;22.17;14.60;;;11.20;99.90;;;;;;5050543;28;20044;-68
2022/03/16 09:12:11;;;;;;;26.42;16.70;;;11.40;99.90;;;;;;5055658;28;20161;-69
2022/03/16 09:14:39;;;;;;;23.13;16.60;;;11.40;99.90;;;;;;5056443;28;20044;-67
2022/03/16 09:17:10;;;;;;;25.55;16.48;;;11.50;99.90;;;;;;5060040;28;20055;-68
2022/03/16 09:19:37;;;;;;;22.40;16.48;;;11.60;99.90;;;;;;5048054;28;20048;-68
2022/03/16 09:22:05;;;;;;;27.15;17.73;;;11.70;99.90;;;;;;5054107;28;20543;-68
2022/03/16 09:24:33;;;;;;;26.17;16.30;;;11.70;99.90;;;;;;5049683;28;20063;-68
2022/03/16 09:27:01;;;;;;;24.23;15.85;;;11.70;99.90;;;;;;5052539;28;20060;-68
2022/03/16 09:29:29;;;;;;;26.77;17.63;;;11.70;99.90;;;;;;5041597;28;20088;-68
2022/03/16 09:32:06;;;;;;;25.95;16.80;;;11.80;99.90;;;;;;5052736;28;20052;-68
2022/03/16 09:34:34;;;;;;;28.20;17.73;;;11.90;99.90;;;;;;5047451;28;20048;-67
2022/03/16 09:37:01;;;;;;;22.58;17.23;;;12.00;99.90;;;;;;5051796;28;20048;-68
2022/03/16 09:39:29;;;;;;;29.48;18.15;;;12.00;99.90;;;;;;5054058;28;20124;-68
2022/03/16 09:41:56;;;;;;;23.40;16.08;;;12.20;99.90;;;;;;5052500;28;20053;-67
2022/03/16 09:44:30;;;;;;;23.55;17.60;;;12.20;99.90;;;;;;5050609;28;20045;-68
2022/03/16 09:46:59;;;;;;;24.45;16.27;;;12.30;99.90;;;;;;5051594;28;20393;-67
2022/03/16 09:49:27;;;;;;;23.95;16.92;;;12.50;99.90;;;;;;5053535;28;20128;-69
2022/03/16 09:51:57;;;;;;;28.17;18.40;;;12.70;99.90;;;;;;5048825;28;20052;-68
2022/03/16 09:54:25;;;;;;;27.20;19.17;;;12.90;99.90;;;;;;5048323;28;20460;-68
2022/03/16 09:56:54;;;;;;;24.20;17.17;;;12.90;99.90;;;;;;5053359;28;20066;-68
2022/03/16 09:59:22;;;;;;;27.40;18.48;;;13.00;99.90;;;;;;5052105;28;20061;-69
2022/03/16 10:02:00;;;;;;;23.58;16.65;;;13.30;99.90;;;;;;5044557;28;20496;-68
2022/03/16 10:04:31;;;;;;;22.15;15.10;;;13.40;99.90;;;;;;5052517;28;20396;-68
2022/03/16 10:07:00;;;;;;;21.13;15.00;;;13.70;99.90;;;;;;5057475;28;20102;-68
2022/03/16 10:15:18;;;;;;;20.75;15.35;;;14.30;99.90;;;;;;5046460;28;20060;-68
2022/03/16 10:17:49;;;;;;;21.42;14.98;;;14.50;99.90;;;;;;5042072;28;20051;-68
2022/03/16 10:20:32;;;;;;;18.90;15.13;;;14.60;99.90;;;;;;5061751;28;20558;-69
2022/03/16 10:23:00;;;;;;;22.40;16.17;;;14.90;99.90;;;;;;5046461;28;20492;-68
2022/03/16 10:25:30;;;;;;;23.15;16.50;;;14.90;99.90;;;;;;5057036;28;20047;-68
2022/03/16 10:28:24;;;;;;;20.85;15.80;;;15.10;99.90;;;;;;5046417;28;20044;-69
2022/03/16 10:31:01;;;;;;;20.40;15.65;;;15.50;99.90;;;;;;5050868;28;20419;-67
2022/03/16 10:33:43;;;;;;;24.83;16.10;;;15.60;99.90;;;;;;5049250;28;20488;-68
2022/03/16 10:36:12;;;;;;;19.95;15.07;;;15.40;99.90;;;;;;5049238;28;20048;-68
2022/03/16 10:38:44;;;;;;;20.05;15.80;;;15.50;99.90;;;;;;5051512;28;20047;-68
2022/03/16 10:41:13;;;;;;;25.92;15.13;;;15.70;99.90;;;;;;5049055;28;20094;-69
2022/03/16 10:46:38;;;;;;;20.73;14.98;;;15.80;99.90;;;;;;5064401;28;20049;-69
2022/03/16 10:49:12;;;;;;;20.40;14.52;;;15.90;99.90;;;;;;5053710;28;20516;-69
2022/03/16 10:51:39;;;;;;;23.77;16.05;;;16.00;99.90;;;;;;5040292;28;20053;-68
2022/03/16 10:54:24;;;;;;;23.63;16.17;;;16.00;99.90;;;;;;5052357;28;20423;-69
2022/03/16 10:56:53;;;;;;;22.30;15.77;;;16.10;99.90;;;;;;5057335;28;20044;-69
2022/03/16 10:59:27;;;;;;;21.77;15.88;;;16.40;99.90;;;;;;5057444;28;20041;-68
2022/03/16 11:02:01;;;;;;;21.23;15.98;;;16.50;99.90;;;;;;5049204;28;20047;-68
2022/03/16 11:04:34;;;;;;;22.60;15.38;;;16.80;99.90;;;;;;5041085;28;20055;-69
2022/03/16 11:07:04;;;;;;;21.48;15.23;;;16.90;99.90;;;;;;5039310;28;20037;-69
2022/03/16 11:09:34;;;;;;;19.27;14.95;;;16.90;99.90;;;;;;5047358;28;20432;-68
2022/03/16 11:14:58;;;;;;;22.88;15.05;;;16.90;99.90;;;;;;5054341;28;20555;-68
2022/03/16 11:17:27;;;;;;;21.45;15.80;;;16.80;99.90;;;;;;5055924;28;20041;-70
2022/03/16 11:19:56;;;;;;;18.65;13.95;;;16.90;99.90;;;;;;5054395;28;20474;-68
2022/03/16 11:24:15;;;;;;;20.60;14.73;;;16.80;99.90;;;;;;5054681;28;20060;-69
2022/03/16 11:25:27;;;;;;;18.90;15.55;;;16.90;99.90;;;;;;5057851;28;20540;-68
2022/03/16 11:27:54;;;;;;;21.92;14.60;;;17.00;99.90;;;;;;5046642;28;20404;-69
2022/03/16 11:30:33;;;;;;;19.90;14.93;;;17.10;99.90;;;;;;5052997;28;20151;-68
2022/03/16 11:33:10;;;;;;;17.90;14.18;;;17.10;99.90;;;;;;5054564;28;20041;-69
2022/03/16 11:35:44;;;;;;;20.10;15.45;;;17.10;99.90;;;;;;5057114;28;20104;-68
2022/03/16 11:38:14;;;;;;;20.52;15.18;;;17.00;99.90;;;;;;5066118;28;20076;-68
2022/03/16 11:40:45;;;;;;;19.38;15.13;;;17.00;99.90;;;;;;5065843;28;20051;-68
2022/03/16 11:43:15;;;;;;;18.92;15.18;;;17.00;99.90;;;;;;5054391;28;20084;-67
2022/03/16 11:45:44;;;;;;;21.33;15.30;;;17.20;99.90;;;;;;5057713;28;20048;-69
2022/03/16 11:48:36;;;;;;;20.83;14.45;;;17.10;99.90;;;;;;5039300;28;20045;-68
2022/03/16 11:51:13;;;;;;;19.23;14.80;;;17.10;99.90;;;;;;5053350;28;20492;-68
2022/03/16 11:56:23;;;;;;;20.70;14.75;;;17.30;99.90;;;;;;5046842;28;20033;-69
2022/03/16 11:58:53;;;;;;;19.95;15.10;;;17.30;99.90;;;;;;5021786;28;20136;-69
2022/03/16 12:01:32;;;;;;;18.67;14.32;;;17.30;99.90;;;;;;5053538;28;20078;-69
2022/03/16 12:04:22;;;;;;;19.48;14.40;;;17.40;99.90;;;;;;5045061;28;20135;-68
2022/03/16 12:07:03;;;;;;;17.52;13.18;;;17.60;99.90;;;;;;5048938;28;20055;-68
2022/03/16 12:09:45;;;;;;;17.83;14.13;;;17.80;99.90;;;;;;5054887;28;20040;-68
2022/03/16 12:15:11;;;;;;;17.48;13.63;;;18.30;99.90;;;;;;5054678;28;20146;-68
2022/03/16 12:18:02;;;;;;;19.63;13.30;;;18.30;99.90;;;;;;5041140;28;20032;-69
2022/03/16 12:20:33;;;;;;;15.77;12.85;;;18.30;99.90;;;;;;5048600;28;20110;-68
2022/03/16 12:23:09;;;;;;;17.23;13.00;;;18.40;99.90;;;;;;5053538;28;20056;-68
2022/03/16 12:25:39;;;;;;;16.05;12.73;;;18.50;99.90;;;;;;5054121;28;20048;-69
2022/03/16 12:31:07;;;;;;;28.27;15.20;;;18.90;99.90;;;;;;5067485;28;20397;-68
2022/03/16 12:33:48;;;;;;;15.02;12.35;;;19.50;99.90;;;;;;5055526;28;20479;-68
2022/03/16 12:36:18;;;;;;;17.70;13.68;;;19.80;99.90;;;;;;5055269;28;20099;-68
2022/03/16 12:38:48;;;;;;;19.33;12.75;;;20.10;99.90;;;;;;5050648;28;20041;-68
2022/03/16 12:44:07;;;;;;;17.58;12.95;;;20.30;99.90;;;;;;5048249;28;20496;-68
2022/03/16 12:46:49;;;;;;;16.33;12.65;;;20.70;99.90;;;;;;5052037;28;20051;-68
2022/03/16 12:49:21;;;;;;;15.90;12.07;;;20.60;99.90;;;;;;5058779;28;20273;-68
2022/03/16 12:51:56;;;;;;;18.88;13.20;;;21.00;99.90;;;;;;5051482;28;20474;-69
2022/03/16 12:54:31;;;;;;;16.67;12.38;;;21.30;99.90;;;;;;5054959;28;20043;-68
2022/03/16 12:57:04;;;;;;;15.27;12.20;;;22.10;99.90;;;;;;5060870;28;20521;-68
2022/03/16 12:59:38;;;;;;;18.27;12.30;;;21.80;99.90;;;;;;5054883;28;20396;-69
2022/03/16 13:02:10;;;;;;;16.45;11.15;;;22.80;99.90;;;;;;5052389;28;20064;-68
2022/03/16 13:04:40;;;;;;;14.88;11.90;;;24.20;99.50;;;;;;5051820;28;20048;-68
2022/03/16 13:07:08;;;;;;;16.13;10.90;;;26.00;95.80;;;;;;5051643;28;20445;-67